Gardena, North Dakota
Current Conditions -  °F | °C
As of 2:35 AM on Friday 31 Oct 2014 (Local Time) from KRUG Reporting Station
Clear Clear  
Wind Chill: 19°   Ceiling: Unl
Heat Index: 19°   Visibility: 10mi
Dew Point: 18°   Wind: 3mph
Humidity: 93%   Direction: 150°SSE
Pressure: 30.58"   Gusts: NA
Location:  48.6836°N, 100.4843°W
Report Text: KRUG 310735Z AUTO 15003KT 10SM CLR M07/M08 A3058 RMK AO2
Loading
Personal Weather Stations






























Interactive Weather Map
Tropical Storm Tracking
New forecast layout! Learn more

10-Day Weather Forecast

Advertisements
Track Severe Weather on mobile